createdAt,value
2022-08-26T00:00:48.822Z,21.70
2022-08-26T00:03:17.201Z,21.70
2022-08-26T00:05:47.460Z,21.60
2022-08-26T00:08:15.337Z,21.50
2022-08-26T00:10:43.514Z,21.70
2022-08-26T00:13:11.794Z,21.60
2022-08-26T00:15:41.204Z,21.40
2022-08-26T00:18:21.949Z,21.40
2022-08-26T00:20:50.731Z,21.30
2022-08-26T00:23:19.402Z,21.30
2022-08-26T00:25:51.693Z,21.40
2022-08-26T00:28:19.149Z,21.40
2022-08-26T00:30:49.312Z,21.40
2022-08-26T00:33:20.666Z,21.30
2022-08-26T00:35:48.330Z,21.40
2022-08-26T00:38:17.832Z,21.30
2022-08-26T00:40:59.941Z,21.20
2022-08-26T00:43:32.718Z,21.00
2022-08-26T00:46:29.494Z,21.00
2022-08-26T00:49:11.720Z,21.30
2022-08-26T00:51:47.787Z,21.20
2022-08-26T00:54:16.066Z,21.20
2022-08-26T00:56:56.804Z,21.30
2022-08-26T00:59:28.525Z,21.30
2022-08-26T01:01:57.293Z,21.20
2022-08-26T01:04:26.341Z,21.10
2022-08-26T01:06:55.336Z,21.00
2022-08-26T01:09:23.334Z,21.00
2022-08-26T01:11:54.682Z,21.00
2022-08-26T01:14:23.544Z,21.10
2022-08-26T01:16:51.308Z,21.10
2022-08-26T01:19:23.761Z,21.20
2022-08-26T01:21:59.257Z,21.20
2022-08-26T01:24:28.963Z,21.20
2022-08-26T01:27:12.422Z,21.20
2022-08-26T01:29:43.223Z,21.20
2022-08-26T01:32:14.709Z,21.10
2022-08-26T01:34:42.233Z,21.10
2022-08-26T01:37:25.316Z,21.10
2022-08-26T01:39:55.423Z,21.10
2022-08-26T01:42:26.010Z,21.10
2022-08-26T01:45:01.557Z,21.20
2022-08-26T01:47:32.191Z,21.10
2022-08-26T01:50:03.829Z,21.10
2022-08-26T01:52:34.147Z,21.00
2022-08-26T01:55:05.513Z,20.90
2022-08-26T01:57:35.899Z,20.80
2022-08-26T02:00:07.485Z,20.80
2022-08-26T02:02:36.237Z,20.90
2022-08-26T02:05:08.206Z,20.90
2022-08-26T02:07:37.620Z,20.80
2022-08-26T02:10:05.789Z,20.80
2022-08-26T02:12:33.572Z,20.90
2022-08-26T02:15:05.839Z,20.90
2022-08-26T02:17:42.368Z,21.00
2022-08-26T02:20:13.306Z,21.00
2022-08-26T02:22:42.940Z,20.90
2022-08-26T02:25:17.057Z,20.80
2022-08-26T02:27:45.884Z,20.70
2022-08-26T02:30:23.750Z,20.90
2022-08-26T02:32:51.924Z,20.90
2022-08-26T02:35:21.149Z,20.90
2022-08-26T02:37:51.713Z,20.80
2022-08-26T02:40:23.547Z,20.80
2022-08-26T02:42:57.150Z,20.80
2022-08-26T02:45:26.287Z,20.80
2022-08-26T02:47:54.122Z,20.80
2022-08-26T02:50:24.174Z,21.00
2022-08-26T02:52:52.978Z,20.90
2022-08-26T02:55:24.688Z,20.90
2022-08-26T02:57:57.647Z,20.80
2022-08-26T03:00:26.920Z,20.80
2022-08-26T03:02:54.531Z,20.70
2022-08-26T03:05:24.037Z,20.80
2022-08-26T03:07:51.476Z,20.70
2022-08-26T03:10:19.477Z,20.60
2022-08-26T03:12:48.698Z,20.60
2022-08-26T03:15:18.444Z,20.60
2022-08-26T03:17:47.894Z,20.60
2022-08-26T03:20:17.389Z,20.70
2022-08-26T03:22:45.216Z,20.70
2022-08-26T03:25:17.171Z,20.70
2022-08-26T03:27:45.003Z,20.70
2022-08-26T03:30:31.818Z,20.70
2022-08-26T03:33:00.331Z,20.60
2022-08-26T03:35:29.004Z,20.60
2022-08-26T03:37:58.834Z,20.50
2022-08-26T03:40:25.988Z,20.50
2022-08-26T03:42:56.531Z,20.40
2022-08-26T03:45:23.689Z,20.40
2022-08-26T03:47:51.960Z,20.40
2022-08-26T03:50:24.343Z,20.40
2022-08-26T03:52:53.076Z,20.30
2022-08-26T03:55:24.764Z,20.30
2022-08-26T03:57:53.193Z,20.30
2022-08-26T04:00:20.804Z,20.30
2022-08-26T04:02:53.181Z,20.30
2022-08-26T04:05:23.032Z,20.30
2022-08-26T04:07:51.491Z,20.20
2022-08-26T04:10:28.568Z,20.30
2022-08-26T04:12:58.903Z,20.30
2022-08-26T04:15:34.980Z,20.30
2022-08-26T04:18:06.854Z,20.20
2022-08-26T04:20:34.208Z,20.30
2022-08-26T04:23:02.012Z,20.30
2022-08-26T04:25:31.418Z,20.30
2022-08-26T04:27:59.903Z,20.40
2022-08-26T04:30:28.890Z,20.30
2022-08-26T04:32:59.150Z,20.30
2022-08-26T04:35:27.174Z,20.30
2022-08-26T04:37:54.512Z,20.30
2022-08-26T04:40:21.624Z,20.40
2022-08-26T04:42:52.330Z,20.50
2022-08-26T04:45:19.465Z,20.50
2022-08-26T04:47:56.441Z,20.50
2022-08-26T04:50:25.575Z,20.60
2022-08-26T04:52:59.706Z,20.50
2022-08-26T04:55:38.547Z,20.60
2022-08-26T04:58:10.139Z,20.80
2022-08-26T05:00:37.877Z,20.90
2022-08-26T05:03:04.643Z,21.00
2022-08-26T05:05:35.497Z,21.10
2022-08-26T05:08:03.369Z,21.10
2022-08-26T05:10:30.625Z,21.20
2022-08-26T05:13:00.252Z,21.30
2022-08-26T05:15:27.115Z,21.10
2022-08-26T05:17:54.094Z,21.20
2022-08-26T05:20:26.221Z,21.30
2022-08-26T05:22:53.892Z,21.50
2022-08-26T05:25:21.576Z,21.30
2022-08-26T05:27:48.887Z,21.50
2022-08-26T05:30:21.199Z,21.60
2022-08-26T05:32:53.594Z,21.70
2022-08-26T05:35:23.017Z,21.60
2022-08-26T05:37:51.544Z,21.50
2022-08-26T05:40:19.639Z,21.50
2022-08-26T05:42:48.691Z,21.80
2022-08-26T05:45:19.883Z,21.90
2022-08-26T05:47:48.064Z,22.00
2022-08-26T05:50:16.264Z,22.20
2022-08-26T05:55:59.483Z,22.40
2022-08-26T05:58:42.880Z,22.80
2022-08-26T06:01:28.120Z,23.00
2022-08-26T06:04:04.538Z,23.20
2022-08-26T06:06:42.864Z,23.40
2022-08-26T06:09:13.042Z,23.70
2022-08-26T06:11:40.399Z,24.00
2022-08-26T06:14:11.678Z,24.40
2022-08-26T06:16:46.690Z,25.00
2022-08-26T06:19:15.859Z,25.70
2022-08-26T06:21:54.197Z,25.60
2022-08-26T06:24:42.863Z,26.00
2022-08-26T06:27:15.236Z,26.30
2022-08-26T06:29:42.722Z,26.20
2022-08-26T06:32:09.813Z,26.60
2022-08-26T06:34:37.195Z,26.80
2022-08-26T06:37:12.203Z,27.00
2022-08-26T06:39:42.586Z,27.70
2022-08-26T06:42:11.871Z,28.20
2022-08-26T06:44:44.771Z,28.70
2022-08-26T06:47:14.411Z,29.80
2022-08-26T06:49:44.329Z,30.50
2022-08-26T06:52:22.510Z,30.50
2022-08-26T06:54:52.524Z,31.50
2022-08-26T06:57:21.651Z,32.00
2022-08-26T06:59:51.240Z,30.70
2022-08-26T07:02:20.816Z,31.00
2022-08-26T07:04:51.058Z,31.80
2022-08-26T07:07:21.874Z,32.10
2022-08-26T07:09:59.059Z,32.60
2022-08-26T07:12:29.297Z,32.90
2022-08-26T07:14:56.611Z,34.20
2022-08-26T07:17:26.958Z,35.60
2022-08-26T07:19:54.211Z,36.80
2022-08-26T07:22:23.996Z,37.90
2022-08-26T07:38:22.112Z,38.10
2022-08-26T07:43:26.118Z,39.20
2022-08-26T07:45:56.894Z,39.80
2022-08-26T07:48:25.565Z,38.80
2022-08-26T07:50:54.357Z,36.80
2022-08-26T07:53:24.168Z,37.00
2022-08-26T07:55:51.526Z,38.60
2022-08-26T07:58:20.664Z,38.30
2022-08-26T08:00:47.725Z,35.90
2022-08-26T08:03:15.260Z,35.00
2022-08-26T08:05:42.472Z,35.90
2022-08-26T08:08:27.565Z,36.30
2022-08-26T08:10:56.708Z,36.60
2022-08-26T08:13:24.395Z,37.10
2022-08-26T08:15:51.327Z,37.00
2022-08-26T08:18:20.557Z,37.70
2022-08-26T08:20:54.513Z,37.10
2022-08-26T08:23:34.285Z,36.50
2022-08-26T08:26:10.239Z,36.60
2022-08-26T08:28:38.969Z,35.80
2022-08-26T08:31:06.361Z,35.90
2022-08-26T08:33:35.335Z,36.40
2022-08-26T08:36:02.672Z,36.30
2022-08-26T08:38:31.776Z,37.40
2022-08-26T08:40:59.389Z,36.40
2022-08-26T08:52:26.900Z,36.70
2022-08-26T09:00:30.210Z,39.50
2022-08-26T09:03:03.981Z,39.70
2022-08-26T09:05:48.056Z,36.60
2022-08-26T09:11:01.835Z,37.10
2022-08-26T09:16:20.444Z,38.90
2022-08-26T09:21:53.577Z,38.60
2022-08-26T09:24:20.582Z,38.10
2022-08-26T09:27:02.577Z,37.30
2022-08-26T09:35:10.705Z,33.30
2022-08-26T09:40:34.514Z,31.20
2022-08-26T09:48:37.328Z,30.30
2022-08-26T09:51:26.469Z,30.20
2022-08-26T09:54:00.826Z,30.20
2022-08-26T09:59:13.111Z,30.20
2022-08-26T10:01:47.761Z,30.40
2022-08-26T10:07:06.530Z,30.40
2022-08-26T10:18:00.412Z,30.50
2022-08-26T10:20:31.660Z,30.10
2022-08-26T10:26:24.115Z,29.70
2022-08-26T10:37:27.929Z,29.80
2022-08-26T10:43:30.527Z,30.00
2022-08-26T10:49:01.451Z,29.80
2022-08-26T10:51:36.181Z,29.90
2022-08-26T10:57:15.402Z,29.80
2022-08-26T11:00:01.083Z,30.00
2022-08-26T11:08:19.729Z,29.80
2022-08-26T11:11:01.760Z,29.90
2022-08-26T11:13:59.632Z,29.90
2022-08-26T11:27:35.672Z,30.30
2022-08-26T11:35:37.795Z,30.60
2022-08-26T11:38:17.101Z,30.50
2022-08-26T11:41:19.417Z,30.30
2022-08-26T11:43:52.584Z,30.20
2022-08-26T11:46:30.812Z,30.30
2022-08-26T11:52:22.638Z,30.30
2022-08-26T12:01:03.611Z,30.30
2022-08-26T12:14:41.251Z,30.30
2022-08-26T12:23:12.217Z,30.50
2022-08-26T12:33:40.614Z,30.20
2022-08-26T12:38:45.112Z,30.20
2022-08-26T12:41:13.601Z,30.30
2022-08-26T12:46:32.333Z,30.20
2022-08-26T12:51:42.618Z,30.00
2022-08-26T12:54:23.550Z,30.00
2022-08-26T12:56:50.709Z,30.20
2022-08-26T12:59:25.280Z,30.20
2022-08-26T13:01:59.680Z,30.40
2022-08-26T13:04:42.905Z,30.30
2022-08-26T13:07:21.642Z,30.40
2022-08-26T13:15:13.836Z,30.30
2022-08-26T13:17:41.857Z,30.20
2022-08-26T13:20:11.601Z,30.20
2022-08-26T13:25:22.231Z,30.40
2022-08-26T13:30:28.350Z,30.40
2022-08-26T13:33:02.221Z,30.50
2022-08-26T13:41:06.893Z,30.50
2022-08-26T13:48:50.312Z,30.20
2022-08-26T13:51:22.306Z,30.20
2022-08-26T13:53:50.942Z,30.30
2022-08-26T13:59:02.075Z,30.10
2022-08-26T14:01:31.510Z,29.90
2022-08-26T14:03:58.816Z,29.90
2022-08-26T14:09:04.195Z,30.10
2022-08-26T14:11:41.158Z,30.10
2022-08-26T14:14:21.865Z,30.10
2022-08-26T14:16:59.950Z,30.10
2022-08-26T14:22:09.495Z,30.10
2022-08-26T14:24:36.691Z,30.10
2022-08-26T14:35:01.738Z,30.20
2022-08-26T14:37:31.949Z,30.10
2022-08-26T14:53:51.665Z,30.00
2022-08-26T14:59:03.044Z,30.10
2022-08-26T15:04:05.595Z,30.10
2022-08-26T15:14:33.257Z,30.20
2022-08-26T15:19:40.524Z,30.00
2022-08-26T15:24:43.127Z,29.90
2022-08-26T15:27:10.014Z,30.00
2022-08-26T15:29:38.099Z,30.00
2022-08-26T15:37:19.920Z,29.90
2022-08-26T15:48:00.830Z,29.70
2022-08-26T15:50:32.175Z,29.70
2022-08-26T15:55:40.673Z,29.60
2022-08-26T15:58:07.755Z,29.40
2022-08-26T16:00:36.730Z,29.30
2022-08-26T16:03:04.203Z,29.30
2022-08-26T16:05:31.153Z,29.30
2022-08-26T16:08:01.055Z,29.20
2022-08-26T16:10:28.321Z,29.20
2022-08-26T16:12:56.827Z,29.00
2022-08-26T16:15:26.825Z,29.10
2022-08-26T16:18:00.451Z,29.10
2022-08-26T16:23:23.995Z,29.10
2022-08-26T16:26:04.749Z,28.90
2022-08-26T16:31:19.636Z,28.70
2022-08-26T16:33:46.854Z,28.70
2022-08-26T16:36:15.380Z,28.70
2022-08-26T16:38:49.964Z,28.70
2022-08-26T16:41:20.349Z,28.60
2022-08-26T16:43:50.285Z,28.50
2022-08-26T16:46:20.214Z,28.30
2022-08-26T16:48:49.885Z,28.30
2022-08-26T16:51:19.131Z,28.20
2022-08-26T16:59:10.031Z,28.10
2022-08-26T17:01:37.349Z,27.90
2022-08-26T17:04:05.074Z,27.80
2022-08-26T17:06:31.933Z,27.80
2022-08-26T17:08:58.702Z,27.70
2022-08-26T17:13:56.853Z,27.50
2022-08-26T17:16:26.855Z,27.50
2022-08-26T17:21:30.907Z,27.40
2022-08-26T17:23:59.828Z,27.20
2022-08-26T17:26:28.741Z,27.10
2022-08-26T17:31:39.699Z,27.00
2022-08-26T17:34:12.002Z,26.90
2022-08-26T17:36:39.135Z,26.70
2022-08-26T17:39:06.440Z,26.70
2022-08-26T17:46:59.581Z,26.70
2022-08-26T17:52:03.677Z,26.40
2022-08-26T17:54:31.367Z,26.30
2022-08-26T17:57:01.427Z,26.30
2022-08-26T18:02:04.462Z,26.30
2022-08-26T18:04:31.962Z,26.10
2022-08-26T18:07:05.523Z,26.20
2022-08-26T18:09:33.070Z,26.10
2022-08-26T18:12:01.119Z,26.00
2022-08-26T18:14:28.555Z,25.90
2022-08-26T18:17:00.704Z,25.90
2022-08-26T18:19:28.203Z,25.90
2022-08-26T18:27:13.211Z,25.50
2022-08-26T18:32:15.894Z,25.50
2022-08-26T18:34:48.803Z,25.40
2022-08-26T18:37:16.855Z,25.30
2022-08-26T18:45:04.812Z,25.30
2022-08-26T18:47:32.511Z,25.20
2022-08-26T19:08:49.835Z,24.80
2022-08-26T19:19:14.116Z,24.60
2022-08-26T19:21:41.372Z,24.50
2022-08-26T20:04:19.208Z,23.90
2022-08-26T20:28:51.008Z,23.50
2022-08-26T20:34:14.255Z,23.60
2022-08-26T20:48:20.536Z,23.20
2022-08-26T20:50:49.319Z,23.20
2022-08-26T20:53:56.721Z,23.10
2022-08-26T21:00:27.048Z,23.10
2022-08-26T21:03:01.515Z,23.30
2022-08-26T21:05:28.985Z,23.30
2022-08-26T21:08:12.190Z,23.20
2022-08-26T21:14:03.529Z,23.10
2022-08-26T21:17:14.666Z,23.20
2022-08-26T21:21:36.118Z,23.00
2022-08-26T21:23:13.034Z,22.80
2022-08-26T21:25:44.550Z,22.70
2022-08-26T21:28:14.307Z,22.80
2022-08-26T21:31:03.144Z,22.50
2022-08-26T21:33:33.262Z,22.30
2022-08-26T21:36:05.959Z,22.10
2022-08-26T21:38:36.924Z,22.00
2022-08-26T21:41:19.708Z,22.00
2022-08-26T21:45:01.140Z,21.90
2022-08-26T21:47:45.689Z,21.80
2022-08-26T21:50:27.518Z,21.60
2022-08-26T21:52:56.155Z,21.50
2022-08-26T21:55:26.845Z,21.70
2022-08-26T21:58:49.497Z,21.60
2022-08-26T22:01:11.218Z,21.40
2022-08-26T22:06:17.153Z,21.30
2022-08-26T23:00:31.886Z,21.60
2022-08-26T23:07:06.353Z,21.30
2022-08-26T23:23:15.717Z,21.50
2022-08-26T23:28:41.868Z,21.10
2022-08-26T23:31:09.554Z,21.10
2022-08-26T23:33:56.956Z,21.20
2022-08-26T23:36:30.772Z,21.20
2022-08-26T23:38:59.023Z,21.30
2022-08-26T23:41:26.325Z,21.30
2022-08-26T23:43:59.565Z,21.30
2022-08-26T23:46:35.750Z,21.10
2022-08-26T23:49:06.421Z,21.10
2022-08-26T23:51:56.396Z,21.10
2022-08-26T23:54:31.850Z,21.00
2022-08-26T23:57:25.755Z,21.00
